createdAt,value
2022-09-10T00:01:27.598Z,12.77
2022-09-10T00:03:56.484Z,12.78
2022-09-10T00:06:26.093Z,12.70
2022-09-10T00:08:54.083Z,12.67
2022-09-10T00:11:20.861Z,12.73
2022-09-10T00:13:49.172Z,12.70
2022-09-10T00:16:19.114Z,12.73
2022-09-10T00:18:47.564Z,12.67
2022-09-10T00:21:18.356Z,12.69
2022-09-10T00:23:45.697Z,12.65
2022-09-10T00:26:34.613Z,12.64
2022-09-10T00:29:02.121Z,12.63
2022-09-10T00:31:30.844Z,12.55
2022-09-10T00:33:59.373Z,12.53
2022-09-10T00:36:36.111Z,12.53
2022-09-10T00:39:06.913Z,12.63
2022-09-10T00:41:36.673Z,12.64
2022-09-10T00:44:26.629Z,12.63
2022-09-10T00:46:54.626Z,12.53
2022-09-10T00:49:44.771Z,12.58
2022-09-10T00:52:12.454Z,12.53
2022-09-10T00:54:42.271Z,12.50
2022-09-10T00:57:13.577Z,12.47
2022-09-10T00:59:43.774Z,12.53
2022-09-10T01:02:12.119Z,12.45
2022-09-10T01:04:39.456Z,12.40
2022-09-10T01:07:09.802Z,12.36
2022-09-10T01:09:38.025Z,12.35
2022-09-10T01:12:19.911Z,12.31
2022-09-10T01:15:15.719Z,12.36
2022-09-10T01:18:11.815Z,12.38
2022-09-10T01:21:00.033Z,12.53
2022-09-10T01:23:39.620Z,12.52
2022-09-10T01:26:12.154Z,12.37
2022-09-10T01:28:59.988Z,12.31
2022-09-10T01:32:03.037Z,12.31
2022-09-10T01:34:35.727Z,12.34
2022-09-10T01:37:11.208Z,12.51
2022-09-10T01:39:39.380Z,12.52
2022-09-10T01:42:06.913Z,12.61
2022-09-10T01:44:42.998Z,12.66
2022-09-10T01:47:52.466Z,12.70
2022-09-10T01:50:39.343Z,12.77
2022-09-10T01:53:30.996Z,12.73
2022-09-10T01:56:19.609Z,12.73
2022-09-10T01:58:46.510Z,12.64
2022-09-10T02:01:35.114Z,12.58
2022-09-10T02:04:06.623Z,12.58
2022-09-10T02:06:36.450Z,12.67
2022-09-10T02:09:04.238Z,12.64
2022-09-10T02:11:32.304Z,12.59
2022-09-10T02:13:59.054Z,12.65
2022-09-10T02:16:33.476Z,12.63
2022-09-10T02:19:02.034Z,12.64
2022-09-10T02:21:28.822Z,12.61
2022-09-10T02:23:59.237Z,12.46
2022-09-10T02:26:25.946Z,12.49
2022-09-10T02:28:52.581Z,12.44
2022-09-10T02:31:19.328Z,12.47
2022-09-10T02:33:46.159Z,12.36
2022-09-10T02:36:13.057Z,12.25
2022-09-10T02:38:40.420Z,12.35
2022-09-10T02:41:09.572Z,12.44
2022-09-10T02:43:38.184Z,12.38
2022-09-10T02:46:08.922Z,12.35
2022-09-10T02:48:35.549Z,12.47
2022-09-10T02:51:02.853Z,12.48
2022-09-10T02:53:31.599Z,12.46
2022-09-10T02:55:58.408Z,12.44
2022-09-10T02:58:25.096Z,12.42
2022-09-10T03:00:51.871Z,12.45
2022-09-10T03:03:18.551Z,12.52
2022-09-10T03:05:45.367Z,12.46
2022-09-10T03:08:12.026Z,12.40
2022-09-10T03:10:39.293Z,12.34
2022-09-10T03:13:06.800Z,12.30
2022-09-10T03:15:33.529Z,12.35
2022-09-10T03:18:00.215Z,12.45
2022-09-10T03:20:27.523Z,12.51
2022-09-10T03:22:54.167Z,12.55
2022-09-10T03:25:22.633Z,12.53
2022-09-10T03:27:49.387Z,12.50
2022-09-10T03:30:16.315Z,12.57
2022-09-10T03:32:43.232Z,12.50
2022-09-10T03:35:10.174Z,12.64
2022-09-10T03:37:36.839Z,12.66
2022-09-10T03:40:04.487Z,12.77
2022-09-10T03:42:31.413Z,12.75
2022-09-10T03:44:58.144Z,12.75
2022-09-10T03:47:24.978Z,12.71
2022-09-10T03:49:51.628Z,12.76
2022-09-10T03:52:18.557Z,12.76
2022-09-10T03:54:45.605Z,12.77
2022-09-10T03:57:13.121Z,12.76
2022-09-10T03:59:41.185Z,12.70
2022-09-10T04:02:11.853Z,12.78
2022-09-10T04:04:38.617Z,12.82
2022-09-10T04:07:05.354Z,12.71
2022-09-10T04:09:32.599Z,12.67
2022-09-10T04:12:00.106Z,12.71
2022-09-10T04:14:27.081Z,12.67
2022-09-10T04:16:53.856Z,12.67
2022-09-10T04:19:20.851Z,12.59
2022-09-10T04:21:48.396Z,12.53
2022-09-10T04:24:15.058Z,12.51
2022-09-10T04:26:41.733Z,12.51
2022-09-10T04:29:08.463Z,12.51
2022-09-10T04:31:35.202Z,12.49
2022-09-10T04:34:01.923Z,12.38
2022-09-10T04:36:29.336Z,12.36
2022-09-10T04:38:56.059Z,12.43
2022-09-10T04:41:23.553Z,12.49
2022-09-10T04:43:50.170Z,12.40
2022-09-10T04:46:17.647Z,12.33
2022-09-10T04:48:44.416Z,12.23
2022-09-10T04:51:17.797Z,12.32
2022-09-10T04:53:46.010Z,12.28
2022-09-10T04:56:13.218Z,12.66
2022-09-10T04:58:41.083Z,12.62
2022-09-10T05:01:08.359Z,12.51
2022-09-10T05:03:35.282Z,12.47
2022-09-10T05:06:02.244Z,12.48
2022-09-10T05:08:29.569Z,12.43
2022-09-10T05:10:56.433Z,12.43
2022-09-10T05:13:24.221Z,12.48
2022-09-10T05:15:50.967Z,12.48
2022-09-10T05:18:17.768Z,12.56
2022-09-10T05:20:47.138Z,12.64
2022-09-10T05:23:13.788Z,12.70
2022-09-10T05:25:42.966Z,12.71
2022-09-10T05:28:09.752Z,12.73
2022-09-10T05:30:36.936Z,12.79
2022-09-10T05:33:04.119Z,12.94
2022-09-10T05:35:31.006Z,13.17
2022-09-10T05:37:57.775Z,13.19
2022-09-10T05:40:25.399Z,13.23
2022-09-10T05:42:54.191Z,13.29
2022-09-10T05:45:24.832Z,13.39
2022-09-10T05:47:52.947Z,13.53
2022-09-10T05:50:20.073Z,13.61
2022-09-10T05:52:47.032Z,13.86
2022-09-10T05:55:14.306Z,13.89
2022-09-10T05:57:41.494Z,14.01
2022-09-10T06:00:09.862Z,13.94
2022-09-10T06:02:36.963Z,13.96
2022-09-10T06:05:04.287Z,13.91
2022-09-10T06:07:31.251Z,13.91
2022-09-10T06:09:57.930Z,14.01
2022-09-10T06:12:24.731Z,14.05
2022-09-10T06:14:51.363Z,13.88
2022-09-10T06:17:18.453Z,13.99
2022-09-10T06:19:46.264Z,14.08
2022-09-10T06:22:13.599Z,14.26
2022-09-10T06:24:40.543Z,14.30
2022-09-10T06:27:07.282Z,14.36
2022-09-10T06:29:36.127Z,14.45
2022-09-10T06:32:03.603Z,14.56
2022-09-10T06:34:30.322Z,14.50
2022-09-10T06:36:58.275Z,14.51
2022-09-10T06:39:25.091Z,14.56
2022-09-10T06:41:53.177Z,14.53
2022-09-10T06:44:22.156Z,14.55
2022-09-10T06:47:42.746Z,14.68
2022-09-10T06:49:36.486Z,14.67
2022-09-10T06:52:03.608Z,14.72
2022-09-10T06:54:30.315Z,14.87
2022-09-10T06:56:57.868Z,14.89
2022-09-10T06:59:24.688Z,14.92
2022-09-10T07:01:51.718Z,15.03
2022-09-10T07:04:18.596Z,15.13
2022-09-10T07:06:47.622Z,15.28
2022-09-10T07:09:14.902Z,15.44
2022-09-10T07:11:42.000Z,15.53
2022-09-10T07:14:12.871Z,15.66
2022-09-10T07:16:44.647Z,15.83
2022-09-10T07:19:15.158Z,15.76
2022-09-10T07:21:42.082Z,15.85
2022-09-10T07:24:10.691Z,16.00
2022-09-10T07:26:37.751Z,15.90
2022-09-10T07:29:04.898Z,16.04
2022-09-10T07:31:38.225Z,16.27
2022-09-10T07:34:05.400Z,16.34
2022-09-10T07:36:32.058Z,16.40
2022-09-10T07:39:01.717Z,16.44
2022-09-10T07:41:34.272Z,16.60
2022-09-10T07:44:04.103Z,16.71
2022-09-10T07:46:30.788Z,16.81
2022-09-10T07:48:59.833Z,16.70
2022-09-10T07:51:29.130Z,16.69
2022-09-10T07:53:58.021Z,17.06
2022-09-10T07:56:25.168Z,17.29
2022-09-10T07:58:53.823Z,17.66
2022-09-10T08:01:21.436Z,17.61
2022-09-10T08:03:48.543Z,17.55
2022-09-10T08:06:16.242Z,17.47
2022-09-10T08:08:43.257Z,17.95
2022-09-10T08:11:12.939Z,18.13
2022-09-10T08:13:50.632Z,18.14
2022-09-10T08:16:20.406Z,18.28
2022-09-10T08:18:48.706Z,18.32
2022-09-10T08:21:17.927Z,18.41
2022-09-10T08:23:51.785Z,18.14
2022-09-10T08:26:18.935Z,18.17
2022-09-10T08:28:46.545Z,18.27
2022-09-10T08:31:13.872Z,18.48
2022-09-10T08:33:40.546Z,18.51
2022-09-10T08:36:10.432Z,18.69
2022-09-10T08:38:39.956Z,18.59
2022-09-10T08:41:23.288Z,18.81
2022-09-10T08:43:58.559Z,18.70
2022-09-10T08:46:29.405Z,18.97
2022-09-10T08:49:14.342Z,19.18
2022-09-10T08:51:44.181Z,19.54
2022-09-10T08:54:16.206Z,20.13
2022-09-10T08:56:43.783Z,20.17
2022-09-10T08:59:33.631Z,20.76
2022-09-10T09:02:26.253Z,21.53
2022-09-10T09:05:18.941Z,21.77
2022-09-10T09:07:48.494Z,22.26
2022-09-10T09:10:24.635Z,22.68
2022-09-10T09:13:36.965Z,22.85
2022-09-10T09:16:03.834Z,22.52
2022-09-10T09:18:45.259Z,23.32
2022-09-10T09:21:17.080Z,23.56
2022-09-10T09:24:13.707Z,24.04
2022-09-10T09:26:44.970Z,24.25
2022-09-10T09:29:19.014Z,23.77
2022-09-10T09:31:53.965Z,24.35
2022-09-10T09:34:44.240Z,25.03
2022-09-10T09:37:18.290Z,24.92
2022-09-10T09:40:07.180Z,25.37
2022-09-10T09:42:45.909Z,25.19
2022-09-10T09:45:37.465Z,25.57
2022-09-10T09:48:06.862Z,25.53
2022-09-10T09:50:37.204Z,26.10
2022-09-10T09:53:03.944Z,25.78
2022-09-10T09:55:41.622Z,26.18
2022-09-10T09:58:21.071Z,26.20
2022-09-10T10:01:05.152Z,26.64
2022-09-10T10:03:42.574Z,26.48
2022-09-10T10:06:11.662Z,26.60
2022-09-10T10:08:41.484Z,26.99
2022-09-10T10:11:09.247Z,26.72
2022-09-10T10:13:38.489Z,26.09
2022-09-10T10:16:21.145Z,26.26
2022-09-10T10:18:48.758Z,25.79
2022-09-10T10:21:22.241Z,24.97
2022-09-10T10:23:49.674Z,24.85
2022-09-10T10:26:33.808Z,24.48
2022-09-10T10:29:20.579Z,23.92
2022-09-10T10:31:49.536Z,23.97
2022-09-10T10:34:25.276Z,23.70
2022-09-10T10:37:14.266Z,24.51
2022-09-10T10:40:05.459Z,24.32
2022-09-10T10:42:38.688Z,24.12
2022-09-10T10:45:18.383Z,23.37
2022-09-10T10:47:51.217Z,24.28
2022-09-10T10:50:39.928Z,25.22
2022-09-10T10:53:43.888Z,25.57
2022-09-10T10:56:32.422Z,25.02
2022-09-10T10:59:07.106Z,26.15
2022-09-10T11:01:42.236Z,26.82
2022-09-10T11:04:34.580Z,27.07
2022-09-10T11:07:12.759Z,26.25
2022-09-10T11:09:58.964Z,27.01
2022-09-10T11:12:36.002Z,27.42
2022-09-10T11:15:02.624Z,26.72
2022-09-10T11:17:42.439Z,27.60
2022-09-10T11:20:29.479Z,27.10
2022-09-10T11:23:14.815Z,28.23
2022-09-10T11:25:55.037Z,27.58
2022-09-10T11:28:26.522Z,27.04
2022-09-10T11:31:05.076Z,27.34
2022-09-10T11:33:46.125Z,26.96
2022-09-10T11:36:23.365Z,26.34
2022-09-10T11:39:14.281Z,26.89
2022-09-10T11:41:43.854Z,27.05
2022-09-10T11:44:47.133Z,27.19
2022-09-10T11:47:29.415Z,26.93
2022-09-10T11:50:34.532Z,27.05
2022-09-10T11:53:03.903Z,26.65
2022-09-10T11:55:47.475Z,26.70
2022-09-10T11:58:38.851Z,25.62
2022-09-10T12:01:11.871Z,26.67
2022-09-10T12:03:44.772Z,27.26
2022-09-10T12:06:31.365Z,27.21
2022-09-10T12:09:09.299Z,26.51
2022-09-10T12:11:47.489Z,26.86
2022-09-10T12:14:17.097Z,27.20
2022-09-10T12:16:54.965Z,25.81
2022-09-10T12:19:31.281Z,25.50
2022-09-10T12:22:05.436Z,25.50
2022-09-10T12:24:35.074Z,25.57
2022-09-10T12:27:05.098Z,25.53
2022-09-10T12:29:40.275Z,25.05
2022-09-10T12:32:28.528Z,25.20
2022-09-10T12:35:35.692Z,24.94
2022-09-10T12:38:57.039Z,24.97
2022-09-10T12:41:23.866Z,25.07
2022-09-10T12:44:00.168Z,24.13
2022-09-10T12:46:28.260Z,24.03
2022-09-10T12:48:58.270Z,24.30
2022-09-10T12:51:28.199Z,24.56
2022-09-10T12:54:03.939Z,24.35
2022-09-10T12:57:09.570Z,24.69
2022-09-10T13:00:11.337Z,24.91
2022-09-10T13:02:49.442Z,24.65
2022-09-10T13:05:40.036Z,24.02
2022-09-10T13:08:26.282Z,24.15
2022-09-10T13:10:59.628Z,24.44
2022-09-10T13:13:44.412Z,24.50
2022-09-10T13:16:18.445Z,24.36
2022-09-10T13:18:46.646Z,24.13
2022-09-10T13:21:25.698Z,24.31
2022-09-10T13:23:54.765Z,24.43
2022-09-10T13:26:38.338Z,23.92
2022-09-10T13:29:11.320Z,24.27
2022-09-10T13:31:45.024Z,24.24
2022-09-10T13:34:27.310Z,23.69
2022-09-10T13:37:03.980Z,24.09
2022-09-10T13:40:01.214Z,24.14
2022-09-10T13:43:05.430Z,24.49
2022-09-10T13:45:50.673Z,24.68
2022-09-10T13:48:46.880Z,24.36
2022-09-10T13:51:36.212Z,24.27
2022-09-10T13:54:36.148Z,23.98
2022-09-10T13:57:38.413Z,23.43
2022-09-10T14:00:07.010Z,23.22
2022-09-10T14:02:45.940Z,21.82
2022-09-10T14:05:48.649Z,22.48
2022-09-10T14:08:26.531Z,21.99
2022-09-10T14:10:53.263Z,22.23
2022-09-10T14:13:28.259Z,22.16
2022-09-10T14:15:58.549Z,22.53
2022-09-10T14:18:31.855Z,22.44
2022-09-10T14:21:00.085Z,22.39
2022-09-10T14:23:29.511Z,22.56
2022-09-10T14:26:14.450Z,22.99
2022-09-10T14:28:52.087Z,22.81
2022-09-10T14:31:37.496Z,22.93
2022-09-10T14:34:24.659Z,22.81
2022-09-10T14:36:51.418Z,22.27
2022-09-10T14:39:20.343Z,22.41
2022-09-10T14:41:48.506Z,21.84
2022-09-10T14:44:22.182Z,21.63
2022-09-10T14:46:57.547Z,21.70
2022-09-10T14:49:30.717Z,21.08
2022-09-10T14:51:59.853Z,21.03
2022-09-10T14:54:26.928Z,20.72
2022-09-10T14:56:56.310Z,20.88
2022-09-10T14:59:25.979Z,20.77
2022-09-10T15:01:53.066Z,20.03
2022-09-10T15:04:26.269Z,20.25
2022-09-10T15:06:54.423Z,20.28
2022-09-10T15:09:21.828Z,20.30
2022-09-10T15:11:56.386Z,20.06
2022-09-10T15:14:24.859Z,19.94
2022-09-10T15:16:54.957Z,19.99
2022-09-10T15:19:22.924Z,19.84
2022-09-10T15:21:50.467Z,19.77
2022-09-10T15:24:22.593Z,19.76
2022-09-10T15:26:49.819Z,19.61
2022-09-10T15:29:17.743Z,19.45
2022-09-10T15:31:44.644Z,19.07
2022-09-10T15:34:12.227Z,19.21
2022-09-10T15:36:40.616Z,19.13
2022-09-10T15:39:11.173Z,19.21
2022-09-10T15:41:42.770Z,19.24
2022-09-10T15:44:10.156Z,19.14
2022-09-10T15:46:40.702Z,19.03
2022-09-10T15:49:07.962Z,19.08
2022-09-10T15:51:34.626Z,18.98
2022-09-10T15:54:04.999Z,18.98
2022-09-10T15:56:32.563Z,18.94
2022-09-10T15:58:59.554Z,18.94
2022-09-10T16:01:28.793Z,18.92
2022-09-10T16:03:57.904Z,18.76
2022-09-10T16:06:31.477Z,18.96
2022-09-10T16:09:01.894Z,18.84
2022-09-10T16:11:33.343Z,18.78
2022-09-10T16:14:04.712Z,18.93
2022-09-10T16:16:33.295Z,19.06
2022-09-10T16:19:00.714Z,19.18
2022-09-10T16:21:32.790Z,19.42
2022-09-10T16:24:00.939Z,19.58
2022-09-10T16:26:34.493Z,19.73
2022-09-10T16:29:05.822Z,19.87
2022-09-10T16:31:35.096Z,19.96
2022-09-10T16:34:04.737Z,19.92
2022-09-10T16:36:33.724Z,19.88
2022-09-10T16:39:05.073Z,19.80
2022-09-10T16:41:33.021Z,19.97
2022-09-10T16:44:00.696Z,19.45
2022-09-10T16:46:28.100Z,19.63
2022-09-10T16:48:55.762Z,19.69
2022-09-10T16:51:24.434Z,19.59
2022-09-10T16:54:05.913Z,19.39
2022-09-10T16:56:39.442Z,19.13
2022-09-10T16:59:09.851Z,19.13
2022-09-10T17:01:37.419Z,18.96
2022-09-10T17:04:04.879Z,19.11
2022-09-10T17:06:31.995Z,18.91
2022-09-10T17:09:00.622Z,18.78
2022-09-10T17:11:31.371Z,18.72
2022-09-10T17:14:01.291Z,18.71
2022-09-10T17:16:32.591Z,18.67
2022-09-10T17:18:59.256Z,18.64
2022-09-10T17:21:27.478Z,18.52
2022-09-10T17:23:55.689Z,18.36
2022-09-10T17:26:24.190Z,18.34
2022-09-10T17:28:55.574Z,18.20
2022-09-10T17:31:23.054Z,17.87
2022-09-10T17:33:51.501Z,17.72
2022-09-10T17:36:18.714Z,17.76
2022-09-10T17:38:46.167Z,17.65
2022-09-10T17:41:14.566Z,17.61
2022-09-10T17:43:43.022Z,17.44
2022-09-10T17:46:12.545Z,17.04
2022-09-10T17:48:39.478Z,16.94
2022-09-10T17:51:07.195Z,16.95
2022-09-10T17:53:34.848Z,17.14
2022-09-10T17:56:07.191Z,16.90
2022-09-10T17:58:34.146Z,16.79
2022-09-10T18:01:02.546Z,16.63
2022-09-10T18:03:29.374Z,16.51
2022-09-10T18:05:56.991Z,16.62
2022-09-10T18:08:23.796Z,16.65
2022-09-10T18:10:50.842Z,16.69
2022-09-10T18:13:19.461Z,16.67
2022-09-10T18:15:46.415Z,16.48
2022-09-10T18:18:14.062Z,16.50
2022-09-10T18:20:40.936Z,16.47
2022-09-10T18:23:07.612Z,16.40
2022-09-10T18:25:34.305Z,16.37
2022-09-10T18:28:03.755Z,16.32
2022-09-10T18:30:30.757Z,16.37
2022-09-10T18:32:57.670Z,16.40
2022-09-10T18:35:24.364Z,16.32
2022-09-10T18:37:51.992Z,16.30
2022-09-10T18:40:19.613Z,16.28
2022-09-10T18:42:49.251Z,16.30
2022-09-10T18:45:18.997Z,16.26
2022-09-10T18:47:47.762Z,16.27
2022-09-10T18:50:17.460Z,16.25
2022-09-10T18:52:47.261Z,16.21
2022-09-10T18:55:17.003Z,16.31
2022-09-10T18:57:47.123Z,16.33
2022-09-10T19:00:16.327Z,16.27
2022-09-10T19:02:43.586Z,16.26
2022-09-10T19:05:14.191Z,16.32
2022-09-10T19:07:43.923Z,16.33
2022-09-10T19:10:13.631Z,16.35
2022-09-10T19:12:43.791Z,16.34
2022-09-10T19:15:13.551Z,16.43
2022-09-10T19:17:40.345Z,16.44
2022-09-10T19:20:10.259Z,16.46
2022-09-10T19:22:40.916Z,16.47
2022-09-10T19:25:10.774Z,16.49
2022-09-10T19:27:41.010Z,16.51
2022-09-10T19:30:11.395Z,16.57
2022-09-10T19:32:40.567Z,16.58
2022-09-10T19:35:11.297Z,16.60
2022-09-10T19:37:41.186Z,16.60
2022-09-10T19:40:11.908Z,16.62
2022-09-10T19:42:41.617Z,16.62
2022-09-10T19:45:12.234Z,16.58
2022-09-10T19:47:40.279Z,16.62
2022-09-10T19:50:08.689Z,16.58
2022-09-10T19:52:38.969Z,16.51
2022-09-10T19:55:09.242Z,16.58
2022-09-10T19:57:39.080Z,16.61
2022-09-10T20:00:17.197Z,16.56
2022-09-10T20:03:01.408Z,16.61
2022-09-10T20:05:34.086Z,16.51
2022-09-10T20:08:04.690Z,16.51
2022-09-10T20:10:34.335Z,16.54
2022-09-10T20:13:04.849Z,16.49
2022-09-10T20:15:42.299Z,16.48
2022-09-10T20:18:14.784Z,16.49
2022-09-10T20:20:46.218Z,16.47
2022-09-10T20:23:16.094Z,16.47
2022-09-10T20:25:45.995Z,16.46
2022-09-10T20:28:16.570Z,16.41
2022-09-10T20:30:46.318Z,16.36
2022-09-10T20:33:16.750Z,16.32
2022-09-10T20:35:46.417Z,16.32
2022-09-10T20:38:16.388Z,16.33
2022-09-10T20:40:46.240Z,16.37
2022-09-10T20:43:16.132Z,16.39
2022-09-10T20:45:46.692Z,16.30
2022-09-10T20:48:16.392Z,16.32
2022-09-10T20:50:54.963Z,16.37
2022-09-10T20:53:23.430Z,16.30
2022-09-10T20:56:03.064Z,16.20
2022-09-10T20:58:37.044Z,16.13
2022-09-10T21:01:13.766Z,16.17
2022-09-10T21:03:41.273Z,16.04
2022-09-10T21:06:12.643Z,16.08
2022-09-10T21:08:42.557Z,16.07
2022-09-10T21:11:16.895Z,16.03
2022-09-10T21:13:46.213Z,15.93
2022-09-10T21:16:28.199Z,15.89
2022-09-10T21:19:04.225Z,15.82
2022-09-10T21:21:35.602Z,15.76
2022-09-10T21:24:09.915Z,15.73
2022-09-10T21:26:43.087Z,15.65
2022-09-10T21:29:18.073Z,15.54
2022-09-10T21:31:50.599Z,15.55
2022-09-10T21:34:20.609Z,15.56
2022-09-10T21:36:51.005Z,15.55
2022-09-10T21:39:20.347Z,15.44
2022-09-10T21:41:50.738Z,15.49
2022-09-10T21:44:22.075Z,15.41
2022-09-10T21:46:50.125Z,15.29
2022-09-10T21:49:20.426Z,15.19
2022-09-10T21:51:49.460Z,15.23
2022-09-10T21:54:21.279Z,15.26
2022-09-10T21:56:51.064Z,15.24
2022-09-10T21:59:21.351Z,15.22
2022-09-10T22:01:50.430Z,15.19
2022-09-10T22:04:22.837Z,15.13
2022-09-10T22:06:50.908Z,15.18
2022-09-10T22:09:20.716Z,15.11
2022-09-10T22:11:51.835Z,15.10
2022-09-10T22:14:21.801Z,15.06
2022-09-10T22:16:52.228Z,15.15
2022-09-10T22:19:23.674Z,14.98
2022-09-10T22:21:57.366Z,14.93
2022-09-10T22:24:26.295Z,14.88
2022-09-10T22:26:55.542Z,14.83
2022-09-10T22:29:25.222Z,14.86
2022-09-10T22:31:54.651Z,14.85
2022-09-10T22:34:24.527Z,14.86
2022-09-10T22:36:53.905Z,14.86
2022-09-10T22:39:23.269Z,14.83
2022-09-10T22:41:52.774Z,14.84
2022-09-10T22:44:23.077Z,14.81
2022-09-10T22:46:52.025Z,14.75
2022-09-10T22:49:21.873Z,14.75
2022-09-10T22:51:51.272Z,14.73
2022-09-10T22:54:20.372Z,14.66
2022-09-10T22:56:49.395Z,14.65
2022-09-10T22:59:18.963Z,14.64
2022-09-10T23:01:48.478Z,14.57
2022-09-10T23:04:17.632Z,14.57
2022-09-10T23:06:47.011Z,14.57
2022-09-10T23:09:18.248Z,14.53
2022-09-10T23:11:47.246Z,14.53
2022-09-10T23:14:19.350Z,14.49
2022-09-10T23:16:49.987Z,14.50
2022-09-10T23:19:24.201Z,14.51
2022-09-10T23:21:55.299Z,14.44
2022-09-10T23:24:24.904Z,14.40
2022-09-10T23:26:54.628Z,14.38
2022-09-10T23:29:24.113Z,14.28
2022-09-10T23:31:54.439Z,14.29
2022-09-10T23:34:23.134Z,14.26
2022-09-10T23:36:52.930Z,14.30
2022-09-10T23:39:23.886Z,14.33
2022-09-10T23:41:56.714Z,14.33
2022-09-10T23:44:25.942Z,14.34
2022-09-10T23:46:58.103Z,14.29
2022-09-10T23:49:27.587Z,14.30
2022-09-10T23:51:57.222Z,14.39
2022-09-10T23:54:29.095Z,14.45
2022-09-10T23:56:57.113Z,14.49
2022-09-10T23:59:25.789Z,14.55
